sensor_id;sensor_type;location;lat;lon;timestamp;P1;durP1;ratioP1;P2;durP2;ratioP2
64157;SDS011;50449;51.528;5.076;2022-10-15T00:01:38;34.78;;;32.08;;
64157;SDS011;50449;51.528;5.076;2022-10-15T00:04:04;36.35;;;33.08;;
64157;SDS011;50449;51.528;5.076;2022-10-15T00:06:29;34.83;;;31.83;;
64157;SDS011;50449;51.528;5.076;2022-10-15T00:08:55;35.80;;;32.88;;
64157;SDS011;50449;51.528;5.076;2022-10-15T00:11:22;36.78;;;33.90;;
64157;SDS011;50449;51.528;5.076;2022-10-15T00:13:51;34.80;;;32.03;;
64157;SDS011;50449;51.528;5.076;2022-10-15T00:16:19;35.90;;;32.30;;
64157;SDS011;50449;51.528;5.076;2022-10-15T00:18:46;33.70;;;30.98;;
64157;SDS011;50449;51.528;5.076;2022-10-15T00:21:12;34.83;;;32.03;;
64157;SDS011;50449;51.528;5.076;2022-10-15T00:23:40;33.80;;;30.92;;
64157;SDS011;50449;51.528;5.076;2022-10-15T00:26:07;36.63;;;33.80;;
64157;SDS011;50449;51.528;5.076;2022-10-15T00:28:32;33.38;;;30.90;;
64157;SDS011;50449;51.528;5.076;2022-10-15T00:30:59;34.00;;;31.48;;
64157;SDS011;50449;51.528;5.076;2022-10-15T00:33:25;35.22;;;32.35;;
64157;SDS011;50449;51.528;5.076;2022-10-15T00:35:57;35.92;;;32.92;;
64157;SDS011;50449;51.528;5.076;2022-10-15T00:38:26;34.92;;;31.83;;
64157;SDS011;50449;51.528;5.076;2022-10-15T00:40:52;36.47;;;33.65;;
64157;SDS011;50449;51.528;5.076;2022-10-15T00:43:33;35.47;;;32.35;;
64157;SDS011;50449;51.528;5.076;2022-10-15T00:49:04;37.65;;;34.08;;
64157;SDS011;50449;51.528;5.076;2022-10-15T00:51:41;37.55;;;33.65;;
64157;SDS011;50449;51.528;5.076;2022-10-15T00:54:09;37.97;;;35.00;;
64157;SDS011;50449;51.528;5.076;2022-10-15T00:56:36;35.17;;;32.38;;
64157;SDS011;50449;51.528;5.076;2022-10-15T00:59:04;38.05;;;34.55;;
64157;SDS011;50449;51.528;5.076;2022-10-15T01:01:30;36.10;;;33.00;;
64157;SDS011;50449;51.528;5.076;2022-10-15T01:03:56;35.83;;;32.70;;
64157;SDS011;50449;51.528;5.076;2022-10-15T01:06:22;34.58;;;31.98;;
64157;SDS011;50449;51.528;5.076;2022-10-15T01:08:48;38.75;;;35.47;;
64157;SDS011;50449;51.528;5.076;2022-10-15T01:11:34;35.85;;;32.92;;
64157;SDS011;50449;51.528;5.076;2022-10-15T01:19:25;32.78;;;30.35;;
64157;SDS011;50449;51.528;5.076;2022-10-15T01:32:52;33.20;;;30.73;;
64157;SDS011;50449;51.528;5.076;2022-10-15T01:35:42;36.58;;;33.53;;
64157;SDS011;50449;51.528;5.076;2022-10-15T01:38:14;35.58;;;32.25;;
64157;SDS011;50449;51.528;5.076;2022-10-15T01:41:03;35.60;;;32.53;;
64157;SDS011;50449;51.528;5.076;2022-10-15T01:43:43;36.15;;;33.05;;
64157;SDS011;50449;51.528;5.076;2022-10-15T01:48:53;35.22;;;31.92;;
64157;SDS011;50449;51.528;5.076;2022-10-15T01:51:22;34.70;;;31.67;;
64157;SDS011;50449;51.528;5.076;2022-10-15T01:53:49;32.92;;;30.52;;
64157;SDS011;50449;51.528;5.076;2022-10-15T01:56:17;37.33;;;34.03;;
64157;SDS011;50449;51.528;5.076;2022-10-15T01:58:45;34.25;;;31.42;;
64157;SDS011;50449;51.528;5.076;2022-10-15T02:03:47;37.08;;;33.85;;
64157;SDS011;50449;51.528;5.076;2022-10-15T02:06:15;34.13;;;31.35;;
64157;SDS011;50449;51.528;5.076;2022-10-15T02:14:33;34.10;;;31.15;;
64157;SDS011;50449;51.528;5.076;2022-10-15T02:17:06;37.55;;;34.22;;
64157;SDS011;50449;51.528;5.076;2022-10-15T02:19:38;34.50;;;31.63;;
64157;SDS011;50449;51.528;5.076;2022-10-15T02:22:33;34.40;;;31.38;;
64157;SDS011;50449;51.528;5.076;2022-10-15T02:27:31;36.15;;;33.10;;
64157;SDS011;50449;51.528;5.076;2022-10-15T02:29:59;37.55;;;34.42;;
64157;SDS011;50449;51.528;5.076;2022-10-15T02:32:27;35.58;;;32.53;;
64157;SDS011;50449;51.528;5.076;2022-10-15T02:34:55;33.72;;;31.08;;
64157;SDS011;50449;51.528;5.076;2022-10-15T02:37:24;34.90;;;31.83;;
64157;SDS011;50449;51.528;5.076;2022-10-15T02:39:52;34.70;;;32.03;;
64157;SDS011;50449;51.528;5.076;2022-10-15T02:42:18;37.17;;;33.70;;
64157;SDS011;50449;51.528;5.076;2022-10-15T02:44:44;36.63;;;33.38;;
64157;SDS011;50449;51.528;5.076;2022-10-15T02:47:09;35.58;;;32.53;;
64157;SDS011;50449;51.528;5.076;2022-10-15T02:49:35;37.25;;;34.13;;
64157;SDS011;50449;51.528;5.076;2022-10-15T02:52:01;36.17;;;32.83;;
64157;SDS011;50449;51.528;5.076;2022-10-15T02:54:26;36.58;;;33.38;;
64157;SDS011;50449;51.528;5.076;2022-10-15T02:56:51;34.72;;;31.75;;
64157;SDS011;50449;51.528;5.076;2022-10-15T02:59:17;33.92;;;31.33;;
64157;SDS011;50449;51.528;5.076;2022-10-15T03:01:43;34.53;;;31.90;;
64157;SDS011;50449;51.528;5.076;2022-10-15T03:04:09;32.63;;;29.90;;
64157;SDS011;50449;51.528;5.076;2022-10-15T03:06:35;35.50;;;32.47;;
64157;SDS011;50449;51.528;5.076;2022-10-15T03:09:00;36.67;;;33.42;;
64157;SDS011;50449;51.528;5.076;2022-10-15T03:11:25;36.17;;;32.85;;
64157;SDS011;50449;51.528;5.076;2022-10-15T03:13:51;31.45;;;29.17;;
64157;SDS011;50449;51.528;5.076;2022-10-15T03:16:16;34.65;;;31.95;;
64157;SDS011;50449;51.528;5.076;2022-10-15T03:18:41;35.08;;;31.80;;
64157;SDS011;50449;51.528;5.076;2022-10-15T03:21:07;35.85;;;32.60;;
64157;SDS011;50449;51.528;5.076;2022-10-15T03:23:32;33.72;;;31.08;;
64157;SDS011;50449;51.528;5.076;2022-10-15T03:26:00;36.25;;;33.30;;
64157;SDS011;50449;51.528;5.076;2022-10-15T03:28:25;36.67;;;33.43;;
64157;SDS011;50449;51.528;5.076;2022-10-15T03:30:51;35.22;;;32.00;;
64157;SDS011;50449;51.528;5.076;2022-10-15T03:33:16;35.22;;;32.42;;
64157;SDS011;50449;51.528;5.076;2022-10-15T03:35:41;35.22;;;32.42;;
64157;SDS011;50449;51.528;5.076;2022-10-15T03:38:07;33.60;;;30.98;;
64157;SDS011;50449;51.528;5.076;2022-10-15T03:40:33;34.90;;;31.70;;
64157;SDS011;50449;51.528;5.076;2022-10-15T03:42:59;34.63;;;31.88;;
64157;SDS011;50449;51.528;5.076;2022-10-15T03:45:25;33.03;;;30.55;;
64157;SDS011;50449;51.528;5.076;2022-10-15T03:47:51;36.47;;;33.38;;
64157;SDS011;50449;51.528;5.076;2022-10-15T03:50:16;37.50;;;33.75;;
64157;SDS011;50449;51.528;5.076;2022-10-15T03:52:42;36.08;;;32.85;;
64157;SDS011;50449;51.528;5.076;2022-10-15T03:55:08;35.35;;;32.58;;
64157;SDS011;50449;51.528;5.076;2022-10-15T03:57:35;34.67;;;31.95;;
64157;SDS011;50449;51.528;5.076;2022-10-15T04:00:01;36.60;;;33.30;;
64157;SDS011;50449;51.528;5.076;2022-10-15T04:02:29;37.42;;;34.22;;
64157;SDS011;50449;51.528;5.076;2022-10-15T04:04:55;32.15;;;29.63;;
64157;SDS011;50449;51.528;5.076;2022-10-15T04:07:21;35.40;;;32.25;;
64157;SDS011;50449;51.528;5.076;2022-10-15T04:09:46;34.55;;;31.65;;
64157;SDS011;50449;51.528;5.076;2022-10-15T04:12:12;37.35;;;33.90;;
64157;SDS011;50449;51.528;5.076;2022-10-15T04:14:38;34.78;;;31.70;;
64157;SDS011;50449;51.528;5.076;2022-10-15T04:17:04;33.10;;;29.80;;
64157;SDS011;50449;51.528;5.076;2022-10-15T04:19:29;39.28;;;35.47;;
64157;SDS011;50449;51.528;5.076;2022-10-15T04:21:54;31.90;;;29.30;;
64157;SDS011;50449;51.528;5.076;2022-10-15T04:24:20;38.92;;;35.20;;
64157;SDS011;50449;51.528;5.076;2022-10-15T04:26:45;34.60;;;31.55;;
64157;SDS011;50449;51.528;5.076;2022-10-15T04:29:11;38.08;;;34.47;;
64157;SDS011;50449;51.528;5.076;2022-10-15T04:31:36;39.28;;;35.53;;
64157;SDS011;50449;51.528;5.076;2022-10-15T04:34:02;37.78;;;32.00;;
64157;SDS011;50449;51.528;5.076;2022-10-15T04:36:28;37.20;;;33.67;;
64157;SDS011;50449;51.528;5.076;2022-10-15T04:38:53;36.28;;;32.95;;
64157;SDS011;50449;51.528;5.076;2022-10-15T04:41:19;35.78;;;32.50;;
64157;SDS011;50449;51.528;5.076;2022-10-15T04:43:44;34.67;;;31.33;;
64157;SDS011;50449;51.528;5.076;2022-10-15T04:46:09;34.50;;;31.83;;
64157;SDS011;50449;51.528;5.076;2022-10-15T04:48:35;35.92;;;32.53;;
64157;SDS011;50449;51.528;5.076;2022-10-15T04:51:05;34.20;;;31.15;;
64157;SDS011;50449;51.528;5.076;2022-10-15T04:53:33;37.17;;;34.03;;
64157;SDS011;50449;51.528;5.076;2022-10-15T04:56:00;32.83;;;30.33;;
64157;SDS011;50449;51.528;5.076;2022-10-15T04:58:32;34.58;;;31.50;;
64157;SDS011;50449;51.528;5.076;2022-10-15T05:01:00;32.10;;;29.58;;
64157;SDS011;50449;51.528;5.076;2022-10-15T05:03:26;36.13;;;32.55;;
64157;SDS011;50449;51.528;5.076;2022-10-15T05:05:52;35.13;;;31.85;;
64157;SDS011;50449;51.528;5.076;2022-10-15T05:08:17;31.52;;;29.10;;
64157;SDS011;50449;51.528;5.076;2022-10-15T05:10:43;31.98;;;29.35;;
64157;SDS011;50449;51.528;5.076;2022-10-15T05:13:08;31.17;;;28.60;;
64157;SDS011;50449;51.528;5.076;2022-10-15T05:15:33;29.10;;;27.20;;
64157;SDS011;50449;51.528;5.076;2022-10-15T05:17:59;30.85;;;28.23;;
64157;SDS011;50449;51.528;5.076;2022-10-15T05:20:24;36.13;;;32.75;;
64157;SDS011;50449;51.528;5.076;2022-10-15T05:22:50;30.33;;;28.08;;
64157;SDS011;50449;51.528;5.076;2022-10-15T05:25:15;33.47;;;30.52;;
64157;SDS011;50449;51.528;5.076;2022-10-15T05:27:40;32.63;;;30.10;;
64157;SDS011;50449;51.528;5.076;2022-10-15T05:30:06;35.15;;;32.15;;
64157;SDS011;50449;51.528;5.076;2022-10-15T05:32:31;36.92;;;33.80;;
64157;SDS011;50449;51.528;5.076;2022-10-15T05:34:57;33.78;;;31.08;;
64157;SDS011;50449;51.528;5.076;2022-10-15T05:37:22;33.28;;;30.13;;
64157;SDS011;50449;51.528;5.076;2022-10-15T05:39:48;35.35;;;32.42;;
64157;SDS011;50449;51.528;5.076;2022-10-15T05:42:13;31.73;;;29.13;;
64157;SDS011;50449;51.528;5.076;2022-10-15T05:44:38;35.30;;;32.25;;
64157;SDS011;50449;51.528;5.076;2022-10-15T05:47:05;34.83;;;31.55;;
64157;SDS011;50449;51.528;5.076;2022-10-15T05:49:35;33.58;;;30.88;;
64157;SDS011;50449;51.528;5.076;2022-10-15T05:52:00;33.60;;;30.67;;
64157;SDS011;50449;51.528;5.076;2022-10-15T05:54:26;35.42;;;31.85;;
64157;SDS011;50449;51.528;5.076;2022-10-15T05:56:51;32.05;;;29.55;;
64157;SDS011;50449;51.528;5.076;2022-10-15T05:59:16;32.45;;;29.88;;
64157;SDS011;50449;51.528;5.076;2022-10-15T06:01:42;31.65;;;29.17;;
64157;SDS011;50449;51.528;5.076;2022-10-15T06:04:07;32.35;;;29.42;;
64157;SDS011;50449;51.528;5.076;2022-10-15T06:06:33;32.47;;;29.95;;
64157;SDS011;50449;51.528;5.076;2022-10-15T06:08:58;31.42;;;28.83;;
64157;SDS011;50449;51.528;5.076;2022-10-15T06:11:25;30.98;;;28.60;;
64157;SDS011;50449;51.528;5.076;2022-10-15T06:13:51;32.35;;;29.73;;
64157;SDS011;50449;51.528;5.076;2022-10-15T06:16:17;32.40;;;29.90;;
64157;SDS011;50449;51.528;5.076;2022-10-15T06:18:42;30.40;;;28.17;;
64157;SDS011;50449;51.528;5.076;2022-10-15T06:21:08;32.47;;;30.05;;
64157;SDS011;50449;51.528;5.076;2022-10-15T06:23:35;34.53;;;31.60;;
64157;SDS011;50449;51.528;5.076;2022-10-15T06:26:04;34.88;;;31.73;;
64157;SDS011;50449;51.528;5.076;2022-10-15T06:28:31;34.88;;;31.98;;
64157;SDS011;50449;51.528;5.076;2022-10-15T06:30:57;33.67;;;30.67;;
64157;SDS011;50449;51.528;5.076;2022-10-15T06:33:24;35.20;;;32.17;;
64157;SDS011;50449;51.528;5.076;2022-10-15T06:35:49;36.05;;;32.67;;
64157;SDS011;50449;51.528;5.076;2022-10-15T06:38:14;32.63;;;29.90;;
64157;SDS011;50449;51.528;5.076;2022-10-15T06:40:40;32.58;;;30.02;;
64157;SDS011;50449;51.528;5.076;2022-10-15T06:43:06;32.33;;;29.58;;
64157;SDS011;50449;51.528;5.076;2022-10-15T06:45:33;34.95;;;31.35;;
64157;SDS011;50449;51.528;5.076;2022-10-15T06:48:03;35.78;;;32.70;;
64157;SDS011;50449;51.528;5.076;2022-10-15T06:50:30;31.10;;;28.45;;
64157;SDS011;50449;51.528;5.076;2022-10-15T06:53:00;33.28;;;30.63;;
64157;SDS011;50449;51.528;5.076;2022-10-15T06:55:26;30.23;;;28.05;;
64157;SDS011;50449;51.528;5.076;2022-10-15T06:57:53;31.50;;;29.05;;
64157;SDS011;50449;51.528;5.076;2022-10-15T07:00:18;35.72;;;32.15;;
64157;SDS011;50449;51.528;5.076;2022-10-15T07:02:44;34.65;;;31.42;;
64157;SDS011;50449;51.528;5.076;2022-10-15T07:05:09;33.05;;;30.25;;
64157;SDS011;50449;51.528;5.076;2022-10-15T07:07:35;34.05;;;31.13;;
64157;SDS011;50449;51.528;5.076;2022-10-15T07:10:00;31.83;;;29.33;;
64157;SDS011;50449;51.528;5.076;2022-10-15T07:12:25;33.88;;;31.00;;
64157;SDS011;50449;51.528;5.076;2022-10-15T07:14:51;34.92;;;31.83;;
64157;SDS011;50449;51.528;5.076;2022-10-15T07:17:16;34.17;;;31.08;;
64157;SDS011;50449;51.528;5.076;2022-10-15T07:19:42;35.78;;;32.72;;
64157;SDS011;50449;51.528;5.076;2022-10-15T07:22:08;35.22;;;32.38;;
64157;SDS011;50449;51.528;5.076;2022-10-15T07:24:33;33.38;;;29.85;;
64157;SDS011;50449;51.528;5.076;2022-10-15T07:26:59;30.08;;;27.83;;
64157;SDS011;50449;51.528;5.076;2022-10-15T07:29:24;34.22;;;30.90;;
64157;SDS011;50449;51.528;5.076;2022-10-15T07:31:50;32.38;;;29.83;;
64157;SDS011;50449;51.528;5.076;2022-10-15T07:34:15;32.60;;;29.90;;
64157;SDS011;50449;51.528;5.076;2022-10-15T07:36:43;33.28;;;30.38;;
64157;SDS011;50449;51.528;5.076;2022-10-15T07:39:08;31.38;;;28.75;;
64157;SDS011;50449;51.528;5.076;2022-10-15T07:41:34;34.00;;;30.98;;
64157;SDS011;50449;51.528;5.076;2022-10-15T07:44:00;31.02;;;28.52;;
64157;SDS011;50449;51.528;5.076;2022-10-15T07:46:25;32.90;;;30.15;;
64157;SDS011;50449;51.528;5.076;2022-10-15T07:48:51;35.15;;;31.52;;
64157;SDS011;50449;51.528;5.076;2022-10-15T07:51:16;31.80;;;29.13;;
64157;SDS011;50449;51.528;5.076;2022-10-15T07:53:41;32.35;;;29.67;;
64157;SDS011;50449;51.528;5.076;2022-10-15T07:56:09;33.17;;;30.35;;
64157;SDS011;50449;51.528;5.076;2022-10-15T07:58:36;32.67;;;29.87;;
64157;SDS011;50449;51.528;5.076;2022-10-15T08:01:03;31.02;;;28.52;;
64157;SDS011;50449;51.528;5.076;2022-10-15T08:03:30;32.28;;;29.67;;
64157;SDS011;50449;51.528;5.076;2022-10-15T08:05:55;32.35;;;29.85;;
64157;SDS011;50449;51.528;5.076;2022-10-15T08:08:23;32.30;;;29.80;;
64157;SDS011;50449;51.528;5.076;2022-10-15T08:10:48;32.75;;;29.80;;
64157;SDS011;50449;51.528;5.076;2022-10-15T08:13:14;30.00;;;27.95;;
64157;SDS011;50449;51.528;5.076;2022-10-15T08:15:39;33.45;;;30.38;;
64157;SDS011;50449;51.528;5.076;2022-10-15T08:18:06;31.65;;;29.20;;
64157;SDS011;50449;51.528;5.076;2022-10-15T08:20:31;32.75;;;30.33;;
64157;SDS011;50449;51.528;5.076;2022-10-15T08:22:57;32.55;;;30.00;;
64157;SDS011;50449;51.528;5.076;2022-10-15T08:25:23;31.35;;;29.02;;
64157;SDS011;50449;51.528;5.076;2022-10-15T08:27:48;33.88;;;31.05;;
64157;SDS011;50449;51.528;5.076;2022-10-15T08:30:13;31.13;;;27.27;;
64157;SDS011;50449;51.528;5.076;2022-10-15T08:32:39;31.27;;;28.60;;
64157;SDS011;50449;51.528;5.076;2022-10-15T08:35:04;29.08;;;26.77;;
64157;SDS011;50449;51.528;5.076;2022-10-15T08:37:30;30.08;;;27.83;;
64157;SDS011;50449;51.528;5.076;2022-10-15T08:39:55;29.88;;;27.65;;
64157;SDS011;50449;51.528;5.076;2022-10-15T08:42:21;29.77;;;27.50;;
64157;SDS011;50449;51.528;5.076;2022-10-15T08:44:57;32.05;;;29.45;;
64157;SDS011;50449;51.528;5.076;2022-10-15T08:53:08;29.20;;;27.15;;
64157;SDS011;50449;51.528;5.076;2022-10-15T08:55:38;29.60;;;27.42;;
64157;SDS011;50449;51.528;5.076;2022-10-15T09:00:45;30.67;;;27.85;;
64157;SDS011;50449;51.528;5.076;2022-10-15T09:03:55;29.30;;;27.20;;
64157;SDS011;50449;51.528;5.076;2022-10-15T09:06:29;27.42;;;25.63;;
64157;SDS011;50449;51.528;5.076;2022-10-15T09:14:40;29.98;;;27.92;;
64157;SDS011;50449;51.528;5.076;2022-10-15T09:17:21;29.80;;;27.70;;
64157;SDS011;50449;51.528;5.076;2022-10-15T09:19:51;27.85;;;25.80;;
64157;SDS011;50449;51.528;5.076;2022-10-15T09:22:22;29.77;;;27.77;;
64157;SDS011;50449;51.528;5.076;2022-10-15T09:24:49;30.50;;;28.30;;
64157;SDS011;50449;51.528;5.076;2022-10-15T09:27:32;27.98;;;25.98;;
64157;SDS011;50449;51.528;5.076;2022-10-15T09:30:03;30.63;;;28.27;;
64157;SDS011;50449;51.528;5.076;2022-10-15T09:32:34;29.90;;;27.77;;
64157;SDS011;50449;51.528;5.076;2022-10-15T09:35:12;28.88;;;26.75;;
64157;SDS011;50449;51.528;5.076;2022-10-15T09:42:52;30.23;;;28.08;;
64157;SDS011;50449;51.528;5.076;2022-10-15T09:47:48;27.75;;;26.00;;
64157;SDS011;50449;51.528;5.076;2022-10-15T09:50:14;29.75;;;27.92;;
64157;SDS011;50449;51.528;5.076;2022-10-15T09:52:53;27.85;;;26.05;;
64157;SDS011;50449;51.528;5.076;2022-10-15T09:58:54;27.95;;;26.05;;
64157;SDS011;50449;51.528;5.076;2022-10-15T10:03:45;29.05;;;26.85;;
64157;SDS011;50449;51.528;5.076;2022-10-15T10:06:16;28.88;;;27.08;;
64157;SDS011;50449;51.528;5.076;2022-10-15T10:08:46;30.20;;;28.10;;
64157;SDS011;50449;51.528;5.076;2022-10-15T10:11:14;27.48;;;25.77;;
64157;SDS011;50449;51.528;5.076;2022-10-15T10:16:11;29.35;;;27.30;;
64157;SDS011;50449;51.528;5.076;2022-10-15T10:18:38;28.98;;;26.95;;
64157;SDS011;50449;51.528;5.076;2022-10-15T10:21:21;30.60;;;28.70;;
64157;SDS011;50449;51.528;5.076;2022-10-15T10:23:46;28.90;;;27.08;;
64157;SDS011;50449;51.528;5.076;2022-10-15T10:26:12;28.85;;;26.70;;
64157;SDS011;50449;51.528;5.076;2022-10-15T10:31:13;28.35;;;26.35;;
64157;SDS011;50449;51.528;5.076;2022-10-15T10:36:05;29.85;;;28.00;;
64157;SDS011;50449;51.528;5.076;2022-10-15T10:38:34;27.40;;;25.80;;
64157;SDS011;50449;51.528;5.076;2022-10-15T10:41:05;30.65;;;28.65;;
64157;SDS011;50449;51.528;5.076;2022-10-15T10:43:37;28.65;;;26.95;;
64157;SDS011;50449;51.528;5.076;2022-10-15T10:46:24;31.00;;;29.15;;
64157;SDS011;50449;51.528;5.076;2022-10-15T10:48:50;26.80;;;25.38;;
64157;SDS011;50449;51.528;5.076;2022-10-15T10:51:18;28.42;;;26.80;;
64157;SDS011;50449;51.528;5.076;2022-10-15T10:54:05;28.75;;;27.13;;
64157;SDS011;50449;51.528;5.076;2022-10-15T10:56:42;29.30;;;27.52;;
64157;SDS011;50449;51.528;5.076;2022-10-15T10:59:13;29.55;;;27.45;;
64157;SDS011;50449;51.528;5.076;2022-10-15T11:01:43;26.83;;;25.35;;
64157;SDS011;50449;51.528;5.076;2022-10-15T11:04:12;29.17;;;27.15;;
64157;SDS011;50449;51.528;5.076;2022-10-15T11:06:45;28.70;;;27.10;;
64157;SDS011;50449;51.528;5.076;2022-10-15T11:17:36;27.58;;;26.08;;
64157;SDS011;50449;51.528;5.076;2022-10-15T11:20:39;29.20;;;27.60;;
64157;SDS011;50449;51.528;5.076;2022-10-15T11:25:50;27.15;;;25.55;;
64157;SDS011;50449;51.528;5.076;2022-10-15T11:37:24;31.45;;;29.73;;
64157;SDS011;50449;51.528;5.076;2022-10-15T11:40:16;28.75;;;27.15;;
64157;SDS011;50449;51.528;5.076;2022-10-15T11:42:59;30.17;;;27.90;;
64157;SDS011;50449;51.528;5.076;2022-10-15T11:48:09;29.88;;;28.17;;
64157;SDS011;50449;51.528;5.076;2022-10-15T11:56:11;29.88;;;28.33;;
64157;SDS011;50449;51.528;5.076;2022-10-15T11:58:43;28.40;;;26.75;;
64157;SDS011;50449;51.528;5.076;2022-10-15T12:04:02;29.33;;;27.67;;
64157;SDS011;50449;51.528;5.076;2022-10-15T12:06:35;29.67;;;27.67;;
64157;SDS011;50449;51.528;5.076;2022-10-15T12:09:04;29.65;;;27.55;;
64157;SDS011;50449;51.528;5.076;2022-10-15T12:11:48;30.70;;;28.80;;
64157;SDS011;50449;51.528;5.076;2022-10-15T12:16:53;29.90;;;28.05;;
64157;SDS011;50449;51.528;5.076;2022-10-15T12:19:33;30.98;;;28.92;;
64157;SDS011;50449;51.528;5.076;2022-10-15T12:22:06;32.05;;;30.05;;
64157;SDS011;50449;51.528;5.076;2022-10-15T12:29:42;28.98;;;27.38;;
64157;SDS011;50449;51.528;5.076;2022-10-15T12:37:39;30.42;;;28.75;;
64157;SDS011;50449;51.528;5.076;2022-10-15T12:42:47;30.70;;;28.80;;
64157;SDS011;50449;51.528;5.076;2022-10-15T12:45:25;30.70;;;28.83;;
64157;SDS011;50449;51.528;5.076;2022-10-15T12:50:34;31.65;;;29.83;;
64157;SDS011;50449;51.528;5.076;2022-10-15T12:53:43;31.00;;;29.00;;
64157;SDS011;50449;51.528;5.076;2022-10-15T12:58:37;33.92;;;31.77;;
64157;SDS011;50449;51.528;5.076;2022-10-15T13:01:50;31.80;;;29.63;;
64157;SDS011;50449;51.528;5.076;2022-10-15T13:03:53;31.10;;;29.30;;
64157;SDS011;50449;51.528;5.076;2022-10-15T13:08:50;31.95;;;29.92;;
64157;SDS011;50449;51.528;5.076;2022-10-15T13:16:54;29.17;;;27.67;;
64157;SDS011;50449;51.528;5.076;2022-10-15T13:22:00;30.05;;;28.35;;
64157;SDS011;50449;51.528;5.076;2022-10-15T13:24:28;29.92;;;28.33;;
64157;SDS011;50449;51.528;5.076;2022-10-15T13:27:02;29.85;;;28.27;;
64157;SDS011;50449;51.528;5.076;2022-10-15T13:29:37;28.42;;;26.83;;
64157;SDS011;50449;51.528;5.076;2022-10-15T13:32:02;30.70;;;29.15;;
64157;SDS011;50449;51.528;5.076;2022-10-15T13:34:30;30.15;;;28.58;;
64157;SDS011;50449;51.528;5.076;2022-10-15T13:36:59;30.98;;;29.17;;
64157;SDS011;50449;51.528;5.076;2022-10-15T13:42:19;29.60;;;28.00;;
64157;SDS011;50449;51.528;5.076;2022-10-15T13:44:56;28.55;;;26.95;;
64157;SDS011;50449;51.528;5.076;2022-10-15T13:47:29;30.65;;;29.00;;
64157;SDS011;50449;51.528;5.076;2022-10-15T13:52:55;30.73;;;29.13;;
64157;SDS011;50449;51.528;5.076;2022-10-15T13:55:25;32.38;;;30.35;;
64157;SDS011;50449;51.528;5.076;2022-10-15T13:57:58;32.40;;;30.25;;
64157;SDS011;50449;51.528;5.076;2022-10-15T14:00:28;30.50;;;28.85;;
64157;SDS011;50449;51.528;5.076;2022-10-15T14:05:44;30.20;;;28.60;;
64157;SDS011;50449;51.528;5.076;2022-10-15T14:08:13;29.80;;;28.17;;
64157;SDS011;50449;51.528;5.076;2022-10-15T14:10:51;30.48;;;28.88;;
64157;SDS011;50449;51.528;5.076;2022-10-15T14:13:18;30.88;;;29.17;;
64157;SDS011;50449;51.528;5.076;2022-10-15T14:15:52;30.58;;;28.98;;
64157;SDS011;50449;51.528;5.076;2022-10-15T14:18:38;29.05;;;27.55;;
64157;SDS011;50449;51.528;5.076;2022-10-15T14:21:28;31.10;;;29.30;;
64157;SDS011;50449;51.528;5.076;2022-10-15T14:26:36;30.52;;;29.02;;
64157;SDS011;50449;51.528;5.076;2022-10-15T14:29:03;29.83;;;28.17;;
64157;SDS011;50449;51.528;5.076;2022-10-15T14:31:36;30.55;;;28.95;;
64157;SDS011;50449;51.528;5.076;2022-10-15T14:34:04;29.83;;;28.35;;
64157;SDS011;50449;51.528;5.076;2022-10-15T14:36:50;30.60;;;28.90;;
64157;SDS011;50449;51.528;5.076;2022-10-15T14:39:21;30.13;;;28.42;;
64157;SDS011;50449;51.528;5.076;2022-10-15T14:42:34;28.55;;;26.95;;
64157;SDS011;50449;51.528;5.076;2022-10-15T14:44:51;32.15;;;30.45;;
64157;SDS011;50449;51.528;5.076;2022-10-15T14:47:18;31.85;;;30.15;;
64157;SDS011;50449;51.528;5.076;2022-10-15T14:49:45;32.38;;;30.48;;
64157;SDS011;50449;51.528;5.076;2022-10-15T14:52:12;30.00;;;28.50;;
64157;SDS011;50449;51.528;5.076;2022-10-15T14:54:44;29.95;;;28.45;;
64157;SDS011;50449;51.528;5.076;2022-10-15T14:57:25;31.85;;;29.98;;
64157;SDS011;50449;51.528;5.076;2022-10-15T14:59:53;31.17;;;29.50;;
64157;SDS011;50449;51.528;5.076;2022-10-15T15:02:21;33.65;;;31.90;;
64157;SDS011;50449;51.528;5.076;2022-10-15T15:07:37;30.88;;;29.30;;
64157;SDS011;50449;51.528;5.076;2022-10-15T15:10:05;31.85;;;30.05;;
64157;SDS011;50449;51.528;5.076;2022-10-15T15:12:32;32.72;;;30.92;;
64157;SDS011;50449;51.528;5.076;2022-10-15T15:14:59;31.20;;;29.48;;
64157;SDS011;50449;51.528;5.076;2022-10-15T15:17:25;32.90;;;31.00;;
64157;SDS011;50449;51.528;5.076;2022-10-15T15:19:52;30.92;;;29.15;;
64157;SDS011;50449;51.528;5.076;2022-10-15T15:22:25;32.45;;;30.60;;
64157;SDS011;50449;51.528;5.076;2022-10-15T15:24:53;31.15;;;28.92;;
64157;SDS011;50449;51.528;5.076;2022-10-15T15:27:23;31.23;;;29.63;;
64157;SDS011;50449;51.528;5.076;2022-10-15T15:29:51;31.70;;;30.00;;
64157;SDS011;50449;51.528;5.076;2022-10-15T15:32:17;32.78;;;31.00;;
64157;SDS011;50449;51.528;5.076;2022-10-15T15:34:43;34.28;;;31.95;;
64157;SDS011;50449;51.528;5.076;2022-10-15T15:37:19;31.70;;;30.08;;
64157;SDS011;50449;51.528;5.076;2022-10-15T15:39:45;33.42;;;31.30;;
64157;SDS011;50449;51.528;5.076;2022-10-15T15:42:12;32.30;;;30.17;;
64157;SDS011;50449;51.528;5.076;2022-10-15T15:44:47;32.33;;;30.33;;
64157;SDS011;50449;51.528;5.076;2022-10-15T15:47:13;31.40;;;29.67;;
64157;SDS011;50449;51.528;5.076;2022-10-15T15:49:39;32.58;;;30.10;;
64157;SDS011;50449;51.528;5.076;2022-10-15T15:52:06;32.50;;;30.90;;
64157;SDS011;50449;51.528;5.076;2022-10-15T15:54:37;32.50;;;30.60;;
64157;SDS011;50449;51.528;5.076;2022-10-15T15:57:03;29.17;;;27.55;;
64157;SDS011;50449;51.528;5.076;2022-10-15T15:59:28;30.20;;;28.60;;
64157;SDS011;50449;51.528;5.076;2022-10-15T16:01:53;30.15;;;28.65;;
64157;SDS011;50449;51.528;5.076;2022-10-15T16:04:19;30.77;;;29.02;;
64157;SDS011;50449;51.528;5.076;2022-10-15T16:06:45;29.65;;;27.92;;
64157;SDS011;50449;51.528;5.076;2022-10-15T16:09:13;29.92;;;28.45;;
64157;SDS011;50449;51.528;5.076;2022-10-15T16:11:39;30.92;;;29.25;;
64157;SDS011;50449;51.528;5.076;2022-10-15T16:14:05;29.92;;;28.33;;
64157;SDS011;50449;51.528;5.076;2022-10-15T16:16:30;34.03;;;31.65;;
64157;SDS011;50449;51.528;5.076;2022-10-15T16:18:56;30.65;;;29.05;;
64157;SDS011;50449;51.528;5.076;2022-10-15T16:21:22;29.35;;;27.77;;
64157;SDS011;50449;51.528;5.076;2022-10-15T16:23:49;29.90;;;28.40;;
64157;SDS011;50449;51.528;5.076;2022-10-15T16:26:14;30.77;;;29.27;;
64157;SDS011;50449;51.528;5.076;2022-10-15T16:28:40;34.25;;;32.28;;
64157;SDS011;50449;51.528;5.076;2022-10-15T16:31:13;32.30;;;30.60;;
64157;SDS011;50449;51.528;5.076;2022-10-15T16:33:39;30.92;;;29.13;;
64157;SDS011;50449;51.528;5.076;2022-10-15T16:36:05;31.05;;;29.38;;
64157;SDS011;50449;51.528;5.076;2022-10-15T16:38:30;33.58;;;31.38;;
64157;SDS011;50449;51.528;5.076;2022-10-15T16:40:56;32.67;;;30.55;;
64157;SDS011;50449;51.528;5.076;2022-10-15T16:43:21;35.20;;;32.67;;
64157;SDS011;50449;51.528;5.076;2022-10-15T16:45:53;32.35;;;30.27;;
64157;SDS011;50449;51.528;5.076;2022-10-15T16:48:21;32.60;;;30.60;;
64157;SDS011;50449;51.528;5.076;2022-10-15T16:50:46;33.03;;;30.83;;
64157;SDS011;50449;51.528;5.076;2022-10-15T16:53:12;34.35;;;31.83;;
64157;SDS011;50449;51.528;5.076;2022-10-15T16:55:37;38.85;;;35.97;;